createdAt,value
2016-04-11T10:07:53.347Z,14884
2016-04-11T10:09:06.614Z,15092
2016-04-11T10:10:11.261Z,15592
2016-04-11T10:11:11.654Z,16032
2016-04-11T10:13:54.206Z,17056
2016-04-11T10:14:55.036Z,15716
2016-04-11T10:15:54.993Z,16008
2016-04-11T10:16:54.746Z,16292
2016-04-11T10:17:54.685Z,15968
2016-04-11T21:33:01.088Z,0
2016-04-11T21:33:50.090Z,0
2016-04-11T21:34:48.921Z,0
2016-04-11T21:35:48.408Z,0
2016-04-11T21:36:59.488Z,0
2016-04-11T21:39:00.900Z,0
2016-04-11T21:39:51.841Z,0
2016-04-11T21:40:48.358Z,0
2016-04-11T21:41:52.003Z,0
2016-04-11T21:42:48.224Z,0
2016-04-11T21:43:50.335Z,0
2016-04-11T21:44:48.619Z,0
2016-04-11T21:46:48.594Z,0
2016-04-11T21:47:48.065Z,0
2016-04-11T21:48:57.662Z,0
2016-04-11T21:49:51.742Z,0
2016-04-11T21:51:48.217Z,0
2016-04-11T21:52:49.579Z,0
2016-04-11T21:53:50.034Z,0
2016-04-11T21:54:59.710Z,0
2016-04-11T21:55:51.571Z,0
2016-04-11T21:57:02.776Z,0
2016-04-11T21:57:51.717Z,0
2016-04-11T21:59:01.923Z,0
2016-04-11T21:59:50.614Z,0
2016-04-11T22:01:51.447Z,0
2016-04-11T22:02:51.590Z,0
2016-04-11T22:03:51.936Z,0
2016-04-11T22:04:51.798Z,0
2016-04-11T22:05:51.661Z,0
2016-04-11T22:07:01.383Z,0
2016-04-11T22:07:48.604Z,0
2016-04-11T22:08:50.872Z,0
2016-04-11T22:09:51.234Z,0
2016-04-11T22:10:50.722Z,0
2016-04-11T22:11:59.786Z,0
2016-04-11T22:12:51.008Z,0
2016-04-11T22:13:51.322Z,0
2016-04-11T22:14:51.107Z,0
2016-04-11T22:15:51.299Z,0
2016-04-11T22:16:50.723Z,0
2016-04-11T22:17:50.778Z,0
2016-04-11T22:18:50.796Z,0
2016-04-11T22:19:50.628Z,0
2016-04-11T22:20:50.562Z,0
